Time;durP1;ratioP1;P1;durP2;ratioP2;P2;SDS_P1;SDS_P2;PMS_P1;PMS_P2;Temp;Humidity;BMP_temperature;BMP_pressure;BME280_temperature;BME280_humidity;BME280_pressure;Samples;Min_cycle;Max_cycle;Signal;HPM_P1;HPM_P2
2021/01/23 00:02:22;;;;;;;30.17;2.55;;;8.10;98.00;;;;;;5038322;28;20032;-71
2021/01/23 00:04:49;;;;;;;20.75;3.33;;;8.00;98.00;;;;;;5038418;28;20377;-71
2021/01/23 00:07:14;;;;;;;10.73;1.80;;;7.90;98.00;;;;;;5038227;28;20029;-70
2021/01/23 00:09:40;;;;;;;20.50;2.60;;;7.90;98.00;;;;;;5038866;28;20104;-70
2021/01/23 00:12:06;;;;;;;18.58;2.38;;;7.80;98.00;;;;;;5038253;28;20060;-70
2021/01/23 00:14:32;;;;;;;18.45;2.28;;;7.80;98.00;;;;;;5038134;28;20083;-70
2021/01/23 00:16:58;;;;;;;20.67;2.33;;;7.70;98.00;;;;;;5038004;28;20061;-70
2021/01/23 00:19:24;;;;;;;15.20;2.03;;;7.60;98.00;;;;;;5037965;28;20057;-70
2021/01/23 00:21:51;;;;;;;24.75;2.28;;;7.50;98.00;;;;;;5038044;28;20040;-70
2021/01/23 00:24:17;;;;;;;14.23;1.63;;;7.40;98.00;;;;;;5037736;28;20021;-70
2021/01/23 00:26:44;;;;;;;22.08;2.22;;;7.50;98.00;;;;;;5038071;28;20040;-70
2021/01/23 00:29:12;;;;;;;23.98;2.55;;;7.50;98.00;;;;;;5037577;28;20057;-70
2021/01/23 00:31:38;;;;;;;18.55;2.20;;;7.40;98.00;;;;;;5037748;28;20036;-70
2021/01/23 00:34:04;;;;;;;16.52;2.28;;;7.30;98.00;;;;;;5038134;28;20295;-70
2021/01/23 00:36:30;;;;;;;18.45;2.50;;;7.30;98.00;;;;;;5037582;28;20040;-70
2021/01/23 00:38:56;;;;;;;17.05;2.40;;;7.20;98.00;;;;;;5037890;28;20028;-70
2021/01/23 00:41:22;;;;;;;23.15;2.05;;;7.30;98.00;;;;;;5037517;28;20026;-70
2021/01/23 00:43:47;;;;;;;18.15;2.17;;;7.20;98.00;;;;;;5037462;28;20018;-70
2021/01/23 00:46:13;;;;;;;19.88;1.88;;;7.10;98.00;;;;;;5037475;28;20022;-70
2021/01/23 00:48:39;;;;;;;14.45;1.58;;;7.00;98.00;;;;;;5037465;28;20067;-70
2021/01/23 00:51:04;;;;;;;25.70;1.90;;;7.00;98.00;;;;;;5037414;28;20025;-70
2021/01/23 00:53:31;;;;;;;17.15;1.88;;;6.90;98.00;;;;;;5037386;28;20030;-70
2021/01/23 00:55:56;;;;;;;18.05;1.85;;;6.90;98.00;;;;;;5037764;28;20167;-70
2021/01/23 00:58:22;;;;;;;12.48;1.80;;;6.90;98.00;;;;;;5037470;28;20059;-69
2021/01/23 01:00:48;;;;;;;17.90;1.85;;;6.80;98.00;;;;;;5037325;28;20368;-70
2021/01/23 01:03:14;;;;;;;16.27;2.90;;;6.80;98.00;;;;;;5037136;28;20495;-70
2021/01/23 01:05:39;;;;;;;18.48;1.92;;;6.80;98.00;;;;;;5037143;28;20103;-70
2021/01/23 01:08:05;;;;;;;16.27;1.67;;;6.80;98.00;;;;;;5037143;28;20109;-70
2021/01/23 01:10:31;;;;;;;16.98;1.50;;;6.80;98.00;;;;;;5037178;28;20045;-70
2021/01/23 01:12:56;;;;;;;18.55;2.25;;;6.80;98.00;;;;;;5037312;28;20377;-70
2021/01/23 01:15:22;;;;;;;20.35;2.05;;;6.80;98.00;;;;;;5036934;28;20025;-70
2021/01/23 01:17:48;;;;;;;22.92;1.50;;;6.90;98.00;;;;;;5037288;28;20109;-70
2021/01/23 01:20:13;;;;;;;13.95;1.83;;;6.80;98.00;;;;;;5036910;28;20334;-70
2021/01/23 01:22:39;;;;;;;23.92;1.55;;;6.90;98.00;;;;;;5036987;28;20033;-70
2021/01/23 01:25:06;;;;;;;21.85;1.52;;;6.90;98.00;;;;;;5036985;28;20072;-70
2021/01/23 01:27:32;;;;;;;21.08;2.47;;;6.90;98.00;;;;;;5036906;28;20434;-70
2021/01/23 01:29:58;;;;;;;28.77;1.77;;;6.80;98.00;;;;;;5036836;28;20024;-70
2021/01/23 01:32:23;;;;;;;19.65;2.03;;;6.80;98.00;;;;;;5035732;28;20029;-70
2021/01/23 01:34:50;;;;;;;24.10;1.77;;;6.80;98.00;;;;;;5036787;28;20026;-70
2021/01/23 01:37:16;;;;;;;18.17;1.40;;;6.70;98.00;;;;;;5036729;28;20029;-70
2021/01/23 01:39:41;;;;;;;24.67;2.20;;;6.60;98.00;;;;;;5036755;28;20033;-69
2021/01/23 01:42:07;;;;;;;14.35;1.73;;;6.60;98.00;;;;;;5037151;28;20029;-70
2021/01/23 01:44:33;;;;;;;15.45;1.92;;;6.50;98.00;;;;;;5036643;28;20025;-70
2021/01/23 01:47:00;;;;;;;9.70;1.70;;;6.50;98.00;;;;;;5036952;28;20120;-70
2021/01/23 01:49:27;;;;;;;7.75;1.33;;;6.50;98.00;;;;;;5040291;28;20338;-70
2021/01/23 01:51:57;;;;;;;3.78;0.98;;;6.60;98.00;;;;;;5043165;28;20029;-70
2021/01/23 01:54:24;;;;;;;6.75;1.00;;;6.60;98.00;;;;;;5043190;28;20100;-70
2021/01/23 01:56:50;;;;;;;4.68;0.70;;;6.70;98.00;;;;;;5043188;28;20076;-70
2021/01/23 01:59:16;;;;;;;6.05;1.10;;;6.70;98.00;;;;;;5043215;28;20032;-70
2021/01/23 02:01:42;;;;;;;3.28;0.73;;;6.70;98.00;;;;;;5042987;28;20022;-70
2021/01/23 02:04:38;;;;;;;6.68;0.80;;;6.70;98.00;;;;;;5043088;28;20025;-70
2021/01/23 02:07:16;;;;;;;7.70;1.45;;;6.80;98.00;;;;;;5043008;28;20040;-70
2021/01/23 02:10:00;;;;;;;4.90;0.75;;;6.70;98.00;;;;;;5043002;28;20430;-70
2021/01/23 02:12:32;;;;;;;4.93;0.80;;;6.80;98.00;;;;;;5043262;28;20112;-70
2021/01/23 02:15:13;;;;;;;11.43;1.13;;;6.80;98.00;;;;;;5043207;28;20471;-70
2021/01/23 02:17:48;;;;;;;7.22;1.25;;;6.80;98.00;;;;;;5043002;28;20040;-70
2021/01/23 02:20:43;;;;;;;5.03;0.95;;;6.90;98.00;;;;;;5043037;28;20057;-70
2021/01/23 02:23:45;;;;;;;7.50;1.20;;;6.80;98.00;;;;;;5042387;28;20532;-70
2021/01/23 02:26:19;;;;;;;60.50;2.83;;;6.80;98.00;;;;;;5042451;28;20038;-70
2021/01/23 02:29:07;;;;;;;6.10;1.88;;;6.70;98.00;;;;;;5042669;28;20049;-70
2021/01/23 02:31:45;;;;;;;2.88;0.60;;;6.70;98.00;;;;;;5042824;28;20029;-70
2021/01/23 02:34:17;;;;;;;54.55;2.47;;;6.70;98.00;;;;;;5043051;28;20437;-70
2021/01/23 02:36:43;;;;;;;7.30;0.80;;;6.70;98.00;;;;;;5041743;28;20043;-70
2021/01/23 02:39:12;;;;;;;5.18;0.77;;;6.70;98.00;;;;;;5042648;28;20051;-70
2021/01/23 02:41:38;;;;;;;11.10;1.30;;;6.70;98.00;;;;;;5042588;28;20083;-70
2021/01/23 02:44:03;;;;;;;3.22;0.65;;;6.70;98.00;;;;;;5042714;28;20033;-70
2021/01/23 02:46:29;;;;;;;7.07;0.80;;;6.70;98.00;;;;;;5042687;28;20357;-70
2021/01/23 02:48:56;;;;;;;14.82;1.33;;;6.70;98.00;;;;;;5042647;28;20057;-70
2021/01/23 02:51:36;;;;;;;16.13;1.20;;;6.70;98.00;;;;;;5042954;28;20022;-70
2021/01/23 02:54:08;;;;;;;9.30;1.38;;;6.70;98.00;;;;;;5042652;28;20047;-70
2021/01/23 02:56:35;;;;;;;8.35;1.65;;;6.70;98.00;;;;;;5042822;28;20041;-70
2021/01/23 02:59:03;;;;;;;7.57;1.58;;;6.70;98.00;;;;;;5042652;28;20083;-70
2021/01/23 03:01:33;;;;;;;12.88;1.10;;;6.70;98.00;;;;;;5038191;28;20053;-70
2021/01/23 03:04:00;;;;;;;10.60;1.30;;;6.70;98.00;;;;;;5039394;28;20079;-70
2021/01/23 03:06:26;;;;;;;10.32;1.67;;;6.70;98.00;;;;;;5039375;28;20041;-70
2021/01/23 03:08:51;;;;;;;17.67;1.52;;;6.70;98.00;;;;;;5039400;28;20022;-70
2021/01/23 03:11:17;;;;;;;7.78;1.35;;;6.70;98.00;;;;;;5039306;28;20026;-70
2021/01/23 03:13:43;;;;;;;13.25;1.27;;;6.70;98.00;;;;;;5039392;28;20029;-70
2021/01/23 03:16:08;;;;;;;13.38;1.73;;;6.70;98.00;;;;;;5038154;28;20060;-70
2021/01/23 03:18:34;;;;;;;13.70;1.75;;;6.70;98.00;;;;;;5039139;28;20018;-70
2021/01/23 03:21:00;;;;;;;13.60;1.40;;;6.80;98.00;;;;;;5038448;28;20029;-70
2021/01/23 03:23:25;;;;;;;13.40;2.75;;;6.70;98.00;;;;;;5039279;28;20124;-70
2021/01/23 03:25:51;;;;;;;23.13;4.85;;;6.70;98.00;;;;;;5038976;28;20326;-70
2021/01/23 03:28:17;;;;;;;7.63;1.30;;;6.70;98.00;;;;;;5038837;28;20045;-70
2021/01/23 03:30:43;;;;;;;18.40;2.13;;;6.70;98.00;;;;;;5038986;28;20108;-70
2021/01/23 03:33:09;;;;;;;13.05;1.80;;;6.70;98.00;;;;;;5039188;28;20364;-70
2021/01/23 03:35:35;;;;;;;13.27;2.33;;;6.70;98.00;;;;;;5038768;28;20025;-70
2021/01/23 03:38:00;;;;;;;16.27;1.85;;;6.70;98.00;;;;;;5038778;28;20052;-70
2021/01/23 03:40:27;;;;;;;24.90;3.05;;;6.70;98.00;;;;;;5038708;28;20025;-70
2021/01/23 03:42:53;;;;;;;11.38;1.63;;;6.70;98.00;;;;;;5038902;28;20034;-70
2021/01/23 03:45:19;;;;;;;10.88;1.75;;;6.70;98.00;;;;;;5038848;28;20044;-70
2021/01/23 03:47:45;;;;;;;12.50;2.20;;;6.70;98.00;;;;;;5038733;28;20033;-70
2021/01/23 03:50:11;;;;;;;15.73;1.40;;;6.70;98.00;;;;;;5038571;28;20038;-70
2021/01/23 03:52:37;;;;;;;10.25;1.48;;;6.70;98.00;;;;;;5038819;28;20030;-70
2021/01/23 03:55:07;;;;;;;17.75;2.20;;;6.70;98.00;;;;;;5038712;28;20034;-70
2021/01/23 03:57:34;;;;;;;9.90;1.75;;;6.70;98.00;;;;;;5038771;28;20108;-70
2021/01/23 04:00:00;;;;;;;21.25;2.13;;;6.70;98.00;;;;;;5038435;28;20049;-70
2021/01/23 04:02:26;;;;;;;17.15;1.80;;;6.70;98.00;;;;;;5038325;28;20057;-70
2021/01/23 04:04:52;;;;;;;13.55;1.80;;;6.70;98.00;;;;;;5038241;28;20455;-70
2021/01/23 04:07:18;;;;;;;12.55;1.42;;;6.70;98.00;;;;;;5038277;28;20017;-70
2021/01/23 04:09:46;;;;;;;15.27;1.70;;;6.80;98.00;;;;;;5038466;28;20030;-70
2021/01/23 04:12:12;;;;;;;16.38;2.13;;;6.70;98.00;;;;;;5036767;28;20029;-70
2021/01/23 04:14:38;;;;;;;11.68;1.88;;;6.70;98.00;;;;;;5038318;28;20033;-69
2021/01/23 04:17:04;;;;;;;16.63;2.75;;;6.70;98.00;;;;;;5038030;28;20082;-69
2021/01/23 04:19:29;;;;;;;20.55;1.90;;;6.70;98.00;;;;;;5038174;28;20104;-70
2021/01/23 04:21:55;;;;;;;11.43;1.55;;;6.70;98.00;;;;;;5037902;28;20028;-70
2021/01/23 04:24:21;;;;;;;9.98;2.92;;;6.70;98.00;;;;;;5037860;28;20040;-70
2021/01/23 04:26:46;;;;;;;11.77;1.88;;;6.70;98.00;;;;;;5037917;28;20030;-70
2021/01/23 04:29:12;;;;;;;13.57;1.60;;;6.70;98.00;;;;;;5037949;28;20361;-69
2021/01/23 04:31:38;;;;;;;18.23;3.53;;;6.60;98.00;;;;;;5037764;28;20029;-70
2021/01/23 04:34:04;;;;;;;11.13;1.70;;;6.60;98.00;;;;;;5037998;28;20033;-70
2021/01/23 04:36:31;;;;;;;12.13;1.83;;;6.50;98.00;;;;;;5037707;28;20021;-70
2021/01/23 04:38:56;;;;;;;6.10;1.25;;;6.50;98.00;;;;;;5038031;28;20325;-70
2021/01/23 04:41:22;;;;;;;13.95;1.70;;;6.40;98.00;;;;;;5037621;28;20021;-70
2021/01/23 04:43:48;;;;;;;11.77;1.40;;;6.40;98.00;;;;;;5037515;28;20061;-69
2021/01/23 04:46:18;;;;;;;14.90;2.30;;;6.40;98.00;;;;;;5037775;28;20026;-69
2021/01/23 04:48:44;;;;;;;17.80;2.72;;;6.40;98.00;;;;;;5037761;28;20102;-69
2021/01/23 04:51:09;;;;;;;6.90;1.45;;;6.40;98.00;;;;;;5037469;28;20124;-70
2021/01/23 04:53:35;;;;;;;8.75;1.20;;;6.40;98.00;;;;;;5037658;28;20410;-70
2021/01/23 04:56:04;;;;;;;12.32;1.33;;;6.40;98.00;;;;;;5037771;28;20033;-70
2021/01/23 04:58:30;;;;;;;13.80;1.40;;;6.40;98.00;;;;;;5037211;28;20029;-70
2021/01/23 05:00:56;;;;;;;12.23;1.30;;;6.40;98.00;;;;;;5037263;28;20032;-70
2021/01/23 05:03:21;;;;;;;6.07;0.98;;;6.30;98.00;;;;;;5037453;28;20055;-70
2021/01/23 05:06:06;;;;;;;7.82;0.93;;;6.40;98.00;;;;;;5037155;28;20029;-70
2021/01/23 05:08:39;;;;;;;5.95;1.00;;;6.40;98.00;;;;;;5037237;28;20021;-70
2021/01/23 05:11:05;;;;;;;7.22;1.10;;;6.40;98.00;;;;;;5037144;28;20026;-70
2021/01/23 05:13:31;;;;;;;10.90;2.00;;;6.50;98.00;;;;;;5037089;28;20097;-70
2021/01/23 05:15:57;;;;;;;8.18;1.48;;;6.50;98.00;;;;;;5036936;28;20108;-70
2021/01/23 05:18:22;;;;;;;10.13;1.05;;;6.50;98.00;;;;;;5037048;28;20087;-70
2021/01/23 05:20:55;;;;;;;7.10;1.23;;;6.50;98.00;;;;;;5036967;28;20030;-70
2021/01/23 05:23:28;;;;;;;11.05;1.55;;;6.60;98.00;;;;;;5036167;28;20029;-70
2021/01/23 05:26:00;;;;;;;9.48;1.40;;;6.60;98.00;;;;;;5037346;28;20444;-70
2021/01/23 05:28:33;;;;;;;6.45;1.15;;;6.60;98.00;;;;;;5036613;28;20050;-70
2021/01/23 05:31:01;;;;;;;8.88;1.83;;;6.60;98.00;;;;;;5036910;28;20026;-70
2021/01/23 05:33:34;;;;;;;9.57;1.33;;;6.70;98.00;;;;;;5037035;28;20074;-70
2021/01/23 05:36:05;;;;;;;8.52;1.23;;;6.70;98.00;;;;;;5036652;28;20025;-70
2021/01/23 05:38:33;;;;;;;4.95;1.48;;;6.70;98.00;;;;;;5036716;28;20112;-70
2021/01/23 05:41:11;;;;;;;8.48;1.45;;;6.70;98.00;;;;;;5035638;28;20030;-70
2021/01/23 05:43:41;;;;;;;8.65;1.45;;;6.80;98.00;;;;;;5036960;28;20022;-70
2021/01/23 05:46:27;;;;;;;8.68;1.63;;;6.80;98.00;;;;;;5035528;28;20105;-70
2021/01/23 05:48:54;;;;;;;7.28;1.50;;;6.80;98.00;;;;;;5036117;28;20037;-70
2021/01/23 05:51:20;;;;;;;12.23;1.25;;;6.80;98.00;;;;;;5036597;28;20064;-70
2021/01/23 05:53:47;;;;;;;10.38;1.40;;;6.90;98.00;;;;;;5036683;28;20506;-70
2021/01/23 05:56:13;;;;;;;10.18;1.50;;;6.90;98.00;;;;;;5036954;28;20040;-70
2021/01/23 05:58:42;;;;;;;7.88;1.85;;;7.00;98.00;;;;;;5036524;28;20034;-70
2021/01/23 06:01:21;;;;;;;12.45;1.23;;;6.90;98.00;;;;;;5036467;28;20030;-70
2021/01/23 06:03:53;;;;;;;8.88;1.35;;;6.90;98.00;;;;;;5036641;28;20030;-70
2021/01/23 06:06:19;;;;;;;8.02;1.45;;;6.90;98.00;;;;;;5036498;28;20021;-70
2021/01/23 06:08:53;;;;;;;12.23;1.23;;;7.00;98.00;;;;;;5036670;28;20033;-70
2021/01/23 06:11:18;;;;;;;8.70;1.48;;;7.00;98.00;;;;;;5036417;28;20031;-70
2021/01/23 06:13:49;;;;;;;7.03;2.13;;;7.00;98.00;;;;;;5036420;28;20025;-70
2021/01/23 06:16:33;;;;;;;19.00;1.83;;;7.00;98.00;;;;;;5036422;28;20121;-70
2021/01/23 06:19:04;;;;;;;72.85;3.97;;;7.10;98.00;;;;;;5036546;28;20033;-70
2021/01/23 06:21:42;;;;;;;57.33;3.10;;;7.10;98.00;;;;;;5036273;28;20092;-70
2021/01/23 06:24:08;;;;;;;16.73;1.85;;;7.10;98.00;;;;;;5036236;28;20021;-70
2021/01/23 06:26:53;;;;;;;19.75;2.03;;;7.10;98.00;;;;;;5036507;28;20026;-70
2021/01/23 06:29:32;;;;;;;11.13;1.13;;;7.10;98.00;;;;;;5036378;28;20033;-70
2021/01/23 06:32:22;;;;;;;9.35;1.33;;;7.10;98.00;;;;;;5036310;28;20079;-70
2021/01/23 06:35:00;;;;;;;8.57;0.90;;;7.00;98.00;;;;;;5036907;28;20041;-70
2021/01/23 06:37:33;;;;;;;9.68;1.02;;;6.90;98.00;;;;;;5039991;28;20025;-68
2021/01/23 06:39:59;;;;;;;11.32;1.15;;;6.90;98.00;;;;;;5040203;28;20037;-68
2021/01/23 06:42:25;;;;;;;13.52;0.98;;;6.90;98.00;;;;;;5039843;28;20057;-70
2021/01/23 06:44:52;;;;;;;11.25;2.03;;;6.80;98.00;;;;;;5038724;28;20026;-70
2021/01/23 06:47:18;;;;;;;9.02;1.00;;;6.70;98.00;;;;;;5039977;28;20080;-69
2021/01/23 06:49:44;;;;;;;8.73;0.90;;;6.70;98.00;;;;;;5040007;28;20405;-70
2021/01/23 06:52:10;;;;;;;36.80;1.98;;;6.80;98.00;;;;;;5039692;28;20368;-69
2021/01/23 06:54:38;;;;;;;25.10;1.80;;;6.70;98.00;;;;;;5039714;28;20036;-69
2021/01/23 06:57:05;;;;;;;4.93;0.70;;;6.80;98.00;;;;;;5039658;28;20041;-69
2021/01/23 06:59:31;;;;;;;6.18;0.80;;;6.70;98.00;;;;;;5039698;28;20322;-69
2021/01/23 07:02:01;;;;;;;4.60;0.73;;;6.60;98.00;;;;;;5039717;28;20030;-69
2021/01/23 07:04:46;;;;;;;5.38;1.10;;;6.60;98.00;;;;;;5039381;28;20022;-69
2021/01/23 07:07:13;;;;;;;3.67;0.93;;;6.50;98.00;;;;;;5038431;28;20037;-70
2021/01/23 07:10:14;;;;;;;2.90;0.60;;;6.50;98.00;;;;;;5039821;28;20361;-71
2021/01/23 07:12:48;;;;;;;3.83;0.70;;;6.50;98.00;;;;;;5039225;28;20025;-71
2021/01/23 07:15:21;;;;;;;2.50;0.55;;;6.50;98.00;;;;;;5039353;28;20025;-71
2021/01/23 07:17:47;;;;;;;3.40;0.38;;;6.40;96.70;;;;;;5039420;28;20436;-70
2021/01/23 07:20:14;;;;;;;2.85;0.77;;;6.30;96.50;;;;;;5039172;28;20106;-71
2021/01/23 07:22:41;;;;;;;2.38;0.52;;;6.10;97.00;;;;;;5038004;28;20037;-71
2021/01/23 07:25:10;;;;;;;4.95;0.52;;;6.00;97.90;;;;;;5039016;28;20018;-71
2021/01/23 07:27:37;;;;;;;2.25;0.60;;;6.00;98.00;;;;;;5037837;28;20106;-71
2021/01/23 07:30:14;;;;;;;3.60;0.68;;;6.00;98.00;;;;;;5039000;28;20044;-70
2021/01/23 07:32:41;;;;;;;4.05;0.52;;;6.00;98.00;;;;;;5038959;28;20369;-71
2021/01/23 07:35:09;;;;;;;4.15;0.70;;;6.10;98.00;;;;;;5038836;28;20422;-71
2021/01/23 07:38:00;;;;;;;3.92;0.77;;;6.10;98.00;;;;;;5038959;28;20030;-71
2021/01/23 07:40:29;;;;;;;5.25;0.60;;;6.10;98.00;;;;;;5037762;28;20032;-71
2021/01/23 07:43:00;;;;;;;6.03;0.70;;;6.00;98.00;;;;;;5038650;28;20033;-71
2021/01/23 07:45:26;;;;;;;5.88;1.20;;;5.90;98.00;;;;;;5038663;28;20013;-70
2021/01/23 07:48:04;;;;;;;5.18;0.90;;;6.00;98.00;;;;;;5038035;28;20033;-70
2021/01/23 07:50:37;;;;;;;10.52;1.45;;;6.00;98.00;;;;;;5038585;28;20018;-70
2021/01/23 07:53:19;;;;;;;8.07;1.52;;;6.10;98.00;;;;;;5038813;28;20040;-70
2021/01/23 07:55:46;;;;;;;6.47;1.38;;;6.00;98.00;;;;;;5038983;28;20479;-70
2021/01/23 07:58:12;;;;;;;7.50;1.38;;;6.00;98.00;;;;;;5037404;28;20034;-70
2021/01/23 08:00:38;;;;;;;13.23;1.58;;;6.10;98.00;;;;;;5038448;28;20018;-70
2021/01/23 08:03:06;;;;;;;11.15;1.70;;;6.10;98.00;;;;;;5038315;28;20159;-70
2021/01/23 08:05:46;;;;;;;14.05;1.33;;;6.10;98.00;;;;;;5038385;28;20029;-70
2021/01/23 08:08:29;;;;;;;8.88;1.45;;;6.10;98.00;;;;;;5038475;28;20022;-70
2021/01/23 08:10:56;;;;;;;11.38;1.75;;;6.10;98.00;;;;;;5038314;28;20018;-70
2021/01/23 08:13:27;;;;;;;7.90;1.98;;;6.10;98.00;;;;;;5038183;28;20078;-70
2021/01/23 08:16:09;;;;;;;9.57;2.47;;;6.10;98.00;;;;;;5038190;28;20026;-70
2021/01/23 08:18:35;;;;;;;16.05;1.60;;;6.10;98.00;;;;;;5038159;28;20132;-70
2021/01/23 08:21:01;;;;;;;6.50;0.95;;;6.00;98.00;;;;;;5037007;28;20116;-70
2021/01/23 08:23:33;;;;;;;9.95;1.77;;;6.00;98.00;;;;;;5037924;28;20163;-70
2021/01/23 08:25:59;;;;;;;11.05;1.30;;;6.00;97.90;;;;;;5038348;28;20037;-70
2021/01/23 08:28:35;;;;;;;7.53;1.70;;;6.00;97.80;;;;;;5037883;28;20502;-70
2021/01/23 08:31:13;;;;;;;4.30;1.00;;;6.00;97.70;;;;;;5038138;28;20341;-70
2021/01/23 08:33:39;;;;;;;4.20;1.05;;;6.00;97.50;;;;;;5037801;28;20030;-70
2021/01/23 08:36:05;;;;;;;8.88;1.70;;;6.00;97.30;;;;;;5037731;28;20037;-70
2021/01/23 08:38:31;;;;;;;8.25;1.52;;;5.90;97.60;;;;;;5036693;28;20307;-70
2021/01/23 08:40:57;;;;;;;3.65;1.02;;;5.90;97.90;;;;;;5037618;28;20033;-70
2021/01/23 08:43:23;;;;;;;4.43;1.08;;;5.90;98.00;;;;;;5037554;28;20037;-70
2021/01/23 08:45:48;;;;;;;6.40;0.80;;;5.90;97.70;;;;;;5037560;28;20018;-70
2021/01/23 08:48:16;;;;;;;5.75;1.00;;;5.80;97.20;;;;;;5037590;28;20321;-70
2021/01/23 08:50:42;;;;;;;10.68;1.80;;;5.80;97.50;;;;;;5037451;28;20079;-70
2021/01/23 08:53:07;;;;;;;8.55;1.45;;;5.80;97.70;;;;;;5037684;28;20026;-70
2021/01/23 08:55:35;;;;;;;5.85;1.30;;;5.80;97.30;;;;;;5037578;28;20057;-70
2021/01/23 08:58:01;;;;;;;3.72;1.05;;;5.80;96.90;;;;;;5036406;28;20041;-70
2021/01/23 09:00:26;;;;;;;3.53;0.90;;;5.70;96.80;;;;;;5037409;28;20125;-70
2021/01/23 09:02:52;;;;;;;5.03;0.90;;;5.70;95.60;;;;;;5036172;28;20037;-70
2021/01/23 09:05:19;;;;;;;5.68;1.67;;;5.70;95.80;;;;;;5037382;28;20021;-70
2021/01/23 09:07:44;;;;;;;5.70;1.63;;;5.60;96.90;;;;;;5037397;28;20021;-69
2021/01/23 09:10:12;;;;;;;2.50;0.60;;;5.60;97.10;;;;;;5037299;28;20017;-69
2021/01/23 09:12:39;;;;;;;2.17;0.68;;;5.60;97.00;;;;;;5037382;28;20082;-70
2021/01/23 09:15:07;;;;;;;5.28;1.13;;;5.60;96.90;;;;;;5036981;28;20098;-70
2021/01/23 09:17:33;;;;;;;3.35;1.02;;;5.50;96.80;;;;;;5037103;28;20033;-69
2021/01/23 09:19:59;;;;;;;8.85;1.00;;;5.60;96.80;;;;;;5037005;28;20536;-70
2021/01/23 09:22:25;;;;;;;3.42;1.20;;;5.50;97.10;;;;;;5036873;28;20303;-70
2021/01/23 09:24:52;;;;;;;3.95;1.10;;;5.50;97.10;;;;;;5036972;28;20024;-70
2021/01/23 09:27:17;;;;;;;4.22;0.88;;;5.40;97.30;;;;;;5036752;28;20451;-70
2021/01/23 09:29:43;;;;;;;4.10;1.10;;;5.40;97.20;;;;;;5036899;28;20057;-70
2021/01/23 09:32:09;;;;;;;4.38;0.77;;;5.30;97.40;;;;;;5036836;28;20029;-70
2021/01/23 09:34:35;;;;;;;2.40;0.60;;;5.30;97.50;;;;;;5036774;28;20107;-70
2021/01/23 09:37:03;;;;;;;2.75;0.90;;;5.30;97.00;;;;;;5037107;28;20040;-70
2021/01/23 09:39:30;;;;;;;3.88;0.90;;;5.10;97.00;;;;;;5036729;28;20025;-70
2021/01/23 09:41:58;;;;;;;2.97;1.05;;;5.10;97.50;;;;;;5035547;28;20377;-70
2021/01/23 09:44:23;;;;;;;1.67;0.50;;;5.10;97.20;;;;;;5036661;28;20080;-70
2021/01/23 09:46:49;;;;;;;6.40;1.00;;;5.10;97.40;;;;;;5036689;28;20051;-70
2021/01/23 09:49:15;;;;;;;4.65;0.82;;;5.10;97.10;;;;;;5036611;28;20021;-70
2021/01/23 09:51:41;;;;;;;4.72;0.85;;;5.10;97.00;;;;;;5036557;28;20018;-70
2021/01/23 09:54:07;;;;;;;2.58;0.90;;;5.00;97.70;;;;;;5036410;28;20079;-70
2021/01/23 09:56:33;;;;;;;9.93;1.85;;;5.00;97.30;;;;;;5036504;28;20083;-70
2021/01/23 09:58:58;;;;;;;3.83;1.10;;;5.00;97.40;;;;;;5036572;28;20064;-70
2021/01/23 10:01:24;;;;;;;19.35;1.20;;;5.00;97.70;;;;;;5036747;28;20021;-70
2021/01/23 10:03:50;;;;;;;4.97;1.00;;;5.00;98.00;;;;;;5036454;28;20065;-70
2021/01/23 10:06:15;;;;;;;4.40;1.23;;;4.90;98.00;;;;;;5036367;28;20071;-70
2021/01/23 10:08:41;;;;;;;6.80;1.20;;;4.90;98.00;;;;;;5035486;28;20107;-70
2021/01/23 10:11:07;;;;;;;7.65;1.80;;;4.90;98.00;;;;;;5048828;28;20409;-70
2021/01/23 10:13:32;;;;;;;2.90;1.33;;;4.90;98.00;;;;;;5041982;28;20040;-70
2021/01/23 10:15:58;;;;;;;4.20;1.13;;;4.90;98.00;;;;;;5040421;28;20056;-70
2021/01/23 10:18:24;;;;;;;11.70;1.42;;;4.90;98.00;;;;;;5040458;28;20072;-70
2021/01/23 10:20:50;;;;;;;11.80;1.95;;;4.90;98.00;;;;;;5040300;28;20079;-70
2021/01/23 10:23:16;;;;;;;114.10;7.05;;;5.00;98.00;;;;;;5040192;28;20025;-70
2021/01/23 10:25:42;;;;;;;176.15;8.27;;;5.00;98.00;;;;;;5040536;28;20302;-70
2021/01/23 10:28:08;;;;;;;4.20;1.75;;;5.00;98.00;;;;;;5039994;28;20054;-70
2021/01/23 10:30:34;;;;;;;4.28;0.80;;;5.00;98.00;;;;;;5040135;28;20076;-70
2021/01/23 10:33:00;;;;;;;3.45;0.52;;;4.80;97.00;;;;;;5040070;28;20349;-70
2021/01/23 10:35:25;;;;;;;4.00;0.60;;;4.60;97.00;;;;;;5039958;28;20025;-70
2021/01/23 10:37:51;;;;;;;1.00;0.35;;;4.40;96.30;;;;;;5040224;28;20104;-70
2021/01/23 10:40:17;;;;;;;1.23;0.50;;;4.10;96.40;;;;;;5039905;28;20075;-69
2021/01/23 10:42:43;;;;;;;1.35;0.40;;;3.90;96.70;;;;;;5039804;28;20029;-69
2021/01/23 10:45:10;;;;;;;0.65;0.30;;;3.80;97.30;;;;;;5039823;28;20033;-69
2021/01/23 10:47:36;;;;;;;0.45;0.22;;;3.80;98.00;;;;;;5040101;28;20075;-70
2021/01/23 10:50:05;;;;;;;0.30;0.20;;;3.80;98.00;;;;;;5039713;28;20018;-70
2021/01/23 10:52:31;;;;;;;1.08;0.40;;;3.80;97.90;;;;;;5039965;28;20022;-70
2021/01/23 10:54:57;;;;;;;0.73;0.35;;;3.90;98.00;;;;;;5039792;28;20026;-70
2021/01/23 10:57:23;;;;;;;1.08;0.57;;;3.90;98.00;;;;;;5039674;28;20338;-70
2021/01/23 10:59:49;;;;;;;1.05;0.40;;;4.00;98.00;;;;;;5039560;28;20036;-70
2021/01/23 11:02:14;;;;;;;1.98;0.40;;;4.00;98.00;;;;;;5039491;28;20318;-70
2021/01/23 11:04:41;;;;;;;0.90;0.40;;;4.00;98.00;;;;;;5039414;28;20468;-70
2021/01/23 11:07:07;;;;;;;0.77;0.30;;;4.00;98.00;;;;;;5039768;28;20313;-70
2021/01/23 11:09:33;;;;;;;1.13;0.30;;;4.10;98.00;;;;;;5039408;28;20013;-70
2021/01/23 11:11:58;;;;;;;0.43;0.25;;;4.10;98.00;;;;;;5039650;28;20022;-70
2021/01/23 11:14:24;;;;;;;1.85;0.20;;;4.10;98.00;;;;;;5039424;28;20029;-70
2021/01/23 11:16:50;;;;;;;1.45;0.38;;;4.10;97.40;;;;;;5039254;28;20021;-70
2021/01/23 11:19:16;;;;;;;0.73;0.32;;;4.20;97.70;;;;;;5039219;28;20013;-70
2021/01/23 11:21:42;;;;;;;4.43;0.60;;;4.30;97.80;;;;;;5038138;28;20472;-70
2021/01/23 11:24:08;;;;;;;0.60;0.40;;;4.30;97.60;;;;;;5039291;28;20356;-70
2021/01/23 11:26:34;;;;;;;0.82;0.45;;;4.30;97.50;;;;;;5039101;28;20021;-70
2021/01/23 11:29:00;;;;;;;3.60;0.38;;;4.40;97.60;;;;;;5038831;28;20037;-70
2021/01/23 11:31:26;;;;;;;2.88;0.50;;;4.40;97.50;;;;;;5038996;28;20024;-70
2021/01/23 11:33:51;;;;;;;0.63;0.38;;;4.40;97.50;;;;;;5038990;28;20029;-71
2021/01/23 11:36:19;;;;;;;1.55;0.50;;;4.40;96.90;;;;;;5038868;28;20029;-70
2021/01/23 11:38:44;;;;;;;0.73;0.30;;;4.30;97.30;;;;;;5038885;28;20076;-70
2021/01/23 11:41:10;;;;;;;4.88;0.88;;;4.40;96.40;;;;;;5038883;28;20029;-70
2021/01/23 11:43:36;;;;;;;1.52;0.60;;;4.30;95.40;;;;;;5038981;28;20357;-70
2021/01/23 11:46:03;;;;;;;2.13;0.60;;;4.30;95.20;;;;;;5038812;28;20032;-70
2021/01/23 11:48:30;;;;;;;1.35;0.40;;;4.30;95.80;;;;;;5038736;28;20430;-70
2021/01/23 11:50:57;;;;;;;0.60;0.38;;;4.30;96.00;;;;;;5038619;28;20021;-70
2021/01/23 11:53:22;;;;;;;4.10;1.23;;;4.30;96.50;;;;;;5038736;28;20025;-70
2021/01/23 11:55:49;;;;;;;2.78;0.60;;;4.30;96.20;;;;;;5038896;28;20101;-70
2021/01/23 11:58:18;;;;;;;3.55;0.50;;;4.20;95.40;;;;;;5038793;28;20384;-70
2021/01/23 12:00:43;;;;;;;1.52;0.40;;;4.10;96.40;;;;;;5038489;28;20365;-70
2021/01/23 12:03:09;;;;;;;1.23;0.50;;;4.00;96.70;;;;;;5038338;28;20036;-70
2021/01/23 12:05:35;;;;;;;5.15;0.50;;;4.00;97.20;;;;;;5038435;28;20017;-70
2021/01/23 12:08:01;;;;;;;2.75;0.35;;;3.90;97.20;;;;;;5038351;28;20034;-70
2021/01/23 12:10:27;;;;;;;0.77;0.55;;;4.00;96.60;;;;;;5038566;28;20356;-70
2021/01/23 12:12:55;;;;;;;1.20;0.35;;;3.80;97.00;;;;;;5038854;28;20041;-70
2021/01/23 12:15:22;;;;;;;2.05;0.40;;;3.70;95.80;;;;;;5038123;28;20032;-70
2021/01/23 12:17:49;;;;;;;2.30;0.40;;;3.70;96.60;;;;;;5038295;28;20075;-70
2021/01/23 12:20:15;;;;;;;3.78;0.50;;;3.80;97.60;;;;;;5037014;28;20031;-70
2021/01/23 12:22:41;;;;;;;2.17;0.43;;;3.80;97.70;;;;;;5037915;28;20118;-70
2021/01/23 12:25:10;;;;;;;1.30;0.35;;;3.90;97.10;;;;;;5038134;28;20095;-70
2021/01/23 12:27:36;;;;;;;0.50;0.20;;;3.80;95.50;;;;;;5037781;28;20069;-71
2021/01/23 12:30:14;;;;;;;1.30;0.40;;;3.90;96.30;;;;;;5037897;28;20021;-71
2021/01/23 12:32:40;;;;;;;0.75;0.25;;;3.90;97.00;;;;;;5037904;28;20036;-70
2021/01/23 12:35:09;;;;;;;3.10;0.55;;;3.80;95.90;;;;;;5037725;28;20030;-70
2021/01/23 12:37:36;;;;;;;0.75;0.38;;;3.80;95.70;;;;;;5038410;28;20033;-70
2021/01/23 12:40:07;;;;;;;4.15;0.50;;;3.80;96.30;;;;;;5037936;28;20022;-70
2021/01/23 12:42:33;;;;;;;0.88;0.20;;;3.80;96.70;;;;;;5037640;28;20044;-70
2021/01/23 12:45:00;;;;;;;0.32;0.30;;;3.90;95.50;;;;;;5037598;28;20076;-70
2021/01/23 12:47:29;;;;;;;0.60;0.20;;;3.90;95.30;;;;;;5037926;28;20025;-70
2021/01/23 12:49:55;;;;;;;0.68;0.30;;;3.90;95.00;;;;;;5037507;28;20025;-70
2021/01/23 12:52:21;;;;;;;1.08;0.30;;;3.90;94.90;;;;;;5036402;28;20086;-70
2021/01/23 12:54:47;;;;;;;0.50;0.20;;;4.00;94.20;;;;;;5036233;28;20033;-71
2021/01/23 12:57:13;;;;;;;3.13;0.30;;;4.00;95.00;;;;;;5037440;28;20087;-71
2021/01/23 12:59:39;;;;;;;0.45;0.30;;;4.00;94.50;;;;;;5037577;28;20022;-70